Maud, Oklahoma
Current Conditions -  °F | °C
As of 6:35 AM on Friday 21 Nov 2014 (Local Time) from KSNL Reporting Station
Haze Haze  
Wind Chill: 54°   Ceiling: 400
Heat Index: 54°   Visibility: 3mi
Dew Point: 54°   Wind: 5mph
Humidity: 100%   Direction: 140°SE
Pressure: 30.07"   Gusts: NA
Location:  35.13°N, 96.78°W
Report Text: KSNL 211235Z AUTO 14004KT 3SM BR OVC004 12/12 A3007 RMK AO2
Loading
Personal Weather Stations






























Interactive Weather Map New forecast layout! Learn more

10-Day Weather Forecast

Advertisements
Track Severe Weather on mobile